Amherst, Ohio
Current Conditions -  °F | °C
As of 2:44 PM on Friday 28 Nov 2014 (Local Time) from KLPR Reporting Station
Overcast Overcast  
Wind Chill: -8°   Ceiling: 3200
Heat Index: -3°   Visibility: 10mi
Dew Point: -8°   Wind: 9mph
Humidity: 71%   Direction: 230°SW
Pressure: 30.24"   Gusts: NA
Location:  41.41°N, 82.24°W
Report Text: KLPR 281944Z AUTO 23008KT 10SM OVC032 M03/M08 A3024 RMK AO2 T10331078 TSNO
Loading
Personal Weather Stations






























Interactive Weather Map New forecast layout! Learn more

10-Day Weather Forecast

Advertisements
Track Severe Weather on mobile